Arriaga, Mexico

2:36 PM CDT on September 17, 2014 (GMT -0500)
Francisco Sarabia | Change Station
CLOSE
Current Station
Airport
Location: Tuxtla Gutierrez,
Elevation: 1516 ft
Nearby Weather Stations

Elev 1516 ft 16.56 °N, 93.03 °W | Updated 47 minutes ago

Scattered Clouds
Scattered Clouds
86 °F
Feels Like 90 °F
N
5
Wind Variable Wind from NW

Today
High -- | Low -- °F
--% Chance of Precip.
Yesterday
High -- | Low -- °F
Precip. -- in
7:04 AM 7:15 PM
Waning Crescent, 33% visible
Pressure 29.96 in
Visibility 10.0 miles
Clouds Scattered Clouds 2500 ft
Heat Index 90 °F
Dew Point 70 °F
Humidity 58%
Rainfall 0.00 in
Snow Depth Not available.
UV 10 out of 12
Pollen Not available.
Air Quality Not available.
Flu Activity Not available.
METAR MMTG 171849Z 32004KT 10SM SCT025 30/21 A2996 RMK 8/100

More Conditions Fewer Conditions

Pressure 29.96 in
Visibility 10.0 miles
Clouds Scattered Clouds 2500 ft
Heat Index 90 °F
Dew Point 70 °F
Humidity 58%
Rainfall 0.00 in
Snow Depth Not available.
UV 10 out of 12
Pollen Not available.
Air Quality Not available.
Flu Activity Not available.
METAR MMTG 171849Z 32004KT 10SM SCT025 30/21 A2996 RMK 8/100

More Conditions Fewer Conditions

10-Day Weather Forecast

Almanac

Astronomy

Sep. 17, 2014 Rise Set
Actual Time 7:04 AM CDT 7:15 PM CDT
Civil Twilight 6:42 AM CDT 7:37 PM CDT
Nautical Twilight 6:17 AM CDT 8:02 PM CDT
Astronomical Twilight 5:52 AM CDT 8:27 PM CDT
Moon 1:42 AM CDT 2:49 PM CDT
Length of Visible Light 12h 54m
Length of Day
12h 11m
Tomorrow will be 0m 54s shorter.
Waning Crescent, 33% of the Moon is Illuminated
Today
Waning Crescent
Sep 24
New
Oct 1
First Quarter
Oct 8
Full
Oct 15
Last Quarter

Today's Extremes

Country Highs Country Lows

Community

WunderPhotos

Upload Photos

1,754,139 photos uploaded!

Nearby

Snow Depth

Not available.

Earthquake Activity

City Distance Mag. Time & Date
No recent earthquake activity has been reported nearby.
Minimum magnitude displayed is 2.5.

Coastal Water Temperatures

Place Temperature
No Stations Reporting

Nearby Weather Stations